Time;durP1;ratioP1;P1;durP2;ratioP2;P2;SDS_P1;SDS_P2;PMS_P1;PMS_P2;Temp;Humidity;BMP_temperature;BMP_pressure;BME280_temperature;BME280_humidity;BME280_pressure;Samples;Min_cycle;Max_cycle;Signal;HPM_P1;HPM_P2
2021/07/27 00:00:16;;;;;;;6.90;5.70;;;17.30;99.90;;;;;;5098422;28;20441;-35
2021/07/27 00:02:41;;;;;;;7.70;5.23;;;17.30;99.90;;;;;;5100395;28;20310;-35
2021/07/27 00:05:08;;;;;;;7.37;6.20;;;17.40;99.90;;;;;;5100687;28;20421;-36
2021/07/27 00:07:37;;;;;;;6.43;5.83;;;17.30;99.90;;;;;;5100663;28;20185;-36
2021/07/27 00:10:07;;;;;;;6.67;5.97;;;17.30;99.90;;;;;;5099763;28;20857;-35
2021/07/27 00:12:33;;;;;;;6.47;5.77;;;17.30;99.90;;;;;;5100076;28;20438;-35
2021/07/27 00:14:59;;;;;;;8.00;6.10;;;17.30;99.90;;;;;;5100549;28;20979;-35
2021/07/27 00:17:28;;;;;;;8.00;6.07;;;17.30;99.90;;;;;;5100075;28;20493;-37
2021/07/27 00:19:57;;;;;;;6.90;5.10;;;17.40;99.90;;;;;;5100023;28;20188;-36
2021/07/27 00:22:23;;;;;;;7.50;5.13;;;17.40;99.90;;;;;;5099385;28;20470;-35
2021/07/27 00:24:51;;;;;;;7.33;6.57;;;17.30;99.90;;;;;;5098642;28;20423;-35
2021/07/27 00:27:18;;;;;;;6.40;5.60;;;17.30;99.90;;;;;;5098928;28;20418;-35
2021/07/27 00:29:44;;;;;;;6.67;5.97;;;17.30;99.90;;;;;;5099552;28;20829;-35
2021/07/27 00:32:10;;;;;;;5.90;5.23;;;17.30;99.90;;;;;;5099859;28;20443;-36
2021/07/27 00:34:36;;;;;;;6.20;5.70;;;17.30;99.90;;;;;;5100244;28;20173;-35
2021/07/27 00:37:02;;;;;;;6.53;5.93;;;17.30;99.90;;;;;;5099549;28;20545;-35
2021/07/27 00:39:28;;;;;;;7.50;6.43;;;17.20;99.90;;;;;;5099931;28;20284;-36
2021/07/27 00:41:54;;;;;;;6.73;6.10;;;17.20;99.90;;;;;;5100006;28;20951;-35
2021/07/27 00:44:20;;;;;;;9.30;6.00;;;17.20;99.90;;;;;;5099227;28;20258;-35
2021/07/27 00:46:45;;;;;;;5.93;5.43;;;17.10;99.90;;;;;;5099429;28;20426;-35
2021/07/27 00:49:11;;;;;;;6.30;5.70;;;17.10;99.90;;;;;;5099768;28;20176;-35
2021/07/27 00:51:38;;;;;;;7.13;6.43;;;17.10;99.90;;;;;;5106019;28;20180;-36
2021/07/27 00:54:06;;;;;;;7.93;6.17;;;17.10;99.90;;;;;;5106026;28;20442;-37
2021/07/27 00:56:34;;;;;;;6.03;4.50;;;17.10;99.90;;;;;;5082666;28;20430;-35
2021/07/27 00:58:59;;;;;;;6.70;6.00;;;17.10;99.90;;;;;;5099550;28;20422;-34
2021/07/27 01:01:25;;;;;;;5.63;5.13;;;17.10;99.90;;;;;;5099288;28;20465;-35
2021/07/27 01:03:51;;;;;;;6.37;5.77;;;17.10;99.90;;;;;;5099175;28;20189;-35
2021/07/27 01:06:17;;;;;;;5.63;5.13;;;17.20;99.90;;;;;;5099149;28;20705;-35
2021/07/27 01:08:43;;;;;;;6.73;5.93;;;17.20;99.90;;;;;;5098869;28;20241;-35
2021/07/27 01:11:09;;;;;;;5.47;4.83;;;17.20;99.90;;;;;;5098074;28;20181;-35
2021/07/27 01:13:34;;;;;;;6.60;5.90;;;17.20;99.90;;;;;;5099127;28;20555;-35
2021/07/27 01:16:07;;;;;;;6.63;6.03;;;17.20;99.90;;;;;;5098518;28;20292;-35
2021/07/27 01:18:40;;;;;;;8.10;5.83;;;17.20;99.90;;;;;;5098608;28;20181;-34
2021/07/27 01:37:36;;;;;;;7.27;6.20;;;17.20;99.90;;;;;;5098178;28;20718;-35
2021/07/27 01:40:03;;;;;;;6.00;5.27;;;17.20;99.90;;;;;;5098300;28;20706;-34
2021/07/27 01:42:38;;;;;;;6.73;4.90;;;17.00;99.90;;;;;;5080523;28;20572;-35
2021/07/27 01:45:24;;;;;;;6.83;5.33;;;17.00;99.90;;;;;;5098458;28;20417;-34
2021/07/27 01:47:50;;;;;;;5.90;5.20;;;16.90;99.90;;;;;;5097372;28;20525;-35
2021/07/27 01:50:16;;;;;;;6.20;5.60;;;16.80;99.90;;;;;;5098437;28;20971;-35
2021/07/27 01:52:46;;;;;;;8.80;5.30;;;16.80;99.90;;;;;;5098142;28;20398;-37
2021/07/27 01:55:13;;;;;;;6.93;6.17;;;16.90;99.90;;;;;;5097994;28;20441;-36
2021/07/27 01:57:38;;;;;;;8.80;5.50;;;16.90;99.90;;;;;;5098277;28;20464;-37
2021/07/27 02:00:06;;;;;;;5.57;5.00;;;16.90;99.90;;;;;;5098176;28;20407;-36
2021/07/27 02:02:33;;;;;;;7.97;5.90;;;16.90;99.90;;;;;;5079799;28;20212;-36
2021/07/27 02:04:59;;;;;;;6.90;6.20;;;16.90;99.90;;;;;;5097638;28;20506;-35
2021/07/27 02:07:25;;;;;;;6.83;6.13;;;16.90;99.90;;;;;;5097656;28;20788;-35
2021/07/27 02:09:57;;;;;;;6.50;5.80;;;16.90;99.90;;;;;;5097737;28;20172;-36
2021/07/27 02:12:24;;;;;;;7.40;6.00;;;16.90;99.90;;;;;;5092493;28;20533;-35
2021/07/27 02:15:06;;;;;;;6.60;5.90;;;16.90;99.90;;;;;;5077202;28;20590;-36
2021/07/27 02:17:33;;;;;;;7.70;6.50;;;16.90;99.90;;;;;;5077065;28;20521;-36
2021/07/27 02:20:00;;;;;;;7.93;6.33;;;16.80;99.90;;;;;;5077172;28;20408;-35
2021/07/27 02:22:26;;;;;;;7.47;5.90;;;16.80;99.90;;;;;;5059746;28;20473;-35
2021/07/27 02:24:52;;;;;;;6.90;5.63;;;16.80;99.90;;;;;;5077328;28;20509;-36
2021/07/27 02:27:17;;;;;;;7.10;6.40;;;16.80;99.90;;;;;;5077076;28;20763;-35
2021/07/27 02:29:45;;;;;;;9.90;6.97;;;16.80;99.90;;;;;;5077411;28;20176;-35
2021/07/27 02:32:12;;;;;;;10.80;6.37;;;16.80;99.90;;;;;;5077049;28;20180;-35
2021/07/27 02:34:38;;;;;;;8.43;6.47;;;16.90;99.90;;;;;;5077038;28;20474;-35
2021/07/27 02:37:03;;;;;;;6.40;5.80;;;16.90;99.90;;;;;;5078064;28;20419;-34
2021/07/27 02:39:36;;;;;;;7.87;7.13;;;16.90;99.90;;;;;;5077300;28;20510;-35
2021/07/27 02:42:02;;;;;;;7.00;6.30;;;16.90;99.90;;;;;;5077215;28;20208;-36
2021/07/27 02:44:28;;;;;;;8.30;6.73;;;16.90;99.90;;;;;;5081875;28;20506;-36
2021/07/27 02:46:53;;;;;;;8.23;6.83;;;16.90;99.90;;;;;;5078448;28;20500;-35
2021/07/27 02:49:19;;;;;;;7.50;6.80;;;16.90;99.90;;;;;;5077086;28;20561;-35
2021/07/27 02:51:49;;;;;;;7.20;6.50;;;16.90;99.90;;;;;;5076847;28;20177;-36
2021/07/27 02:54:14;;;;;;;7.97;7.17;;;16.90;99.90;;;;;;5077020;28;20276;-36
2021/07/27 02:56:41;;;;;;;6.83;6.23;;;17.00;99.90;;;;;;5077202;28;20439;-35
2021/07/27 02:59:06;;;;;;;8.03;6.70;;;17.00;99.90;;;;;;5077472;28;20185;-35
2021/07/27 03:01:32;;;;;;;10.80;7.60;;;17.00;99.90;;;;;;5076913;28;20850;-35
2021/07/27 03:03:58;;;;;;;6.87;6.27;;;17.10;99.90;;;;;;5076779;28;20424;-34
2021/07/27 03:06:24;;;;;;;6.90;6.20;;;17.10;99.90;;;;;;5077063;28;20199;-35
2021/07/27 03:09:04;;;;;;;13.60;7.40;;;17.10;99.90;;;;;;5076678;28;20477;-37
2021/07/27 03:11:32;;;;;;;5.90;5.30;;;17.20;99.90;;;;;;5076764;28;20414;-36
2021/07/27 03:13:58;;;;;;;6.50;5.90;;;17.20;99.90;;;;;;5076192;28;20438;-35
2021/07/27 03:16:25;;;;;;;9.13;6.70;;;17.20;99.90;;;;;;5076800;28;20473;-36
2021/07/27 03:18:52;;;;;;;6.60;6.00;;;17.30;99.90;;;;;;5077088;28;20438;-36
2021/07/27 03:21:23;;;;;;;6.70;6.10;;;17.30;99.90;;;;;;5077605;28;20468;-35
2021/07/27 03:23:50;;;;;;;7.50;6.37;;;17.30;99.90;;;;;;5097052;28;20418;-34
2021/07/27 03:26:16;;;;;;;6.80;6.10;;;17.30;99.90;;;;;;5097099;28;20564;-35
2021/07/27 03:28:43;;;;;;;6.20;5.70;;;17.30;99.90;;;;;;5096455;28;20466;-36
2021/07/27 03:31:09;;;;;;;8.33;7.53;;;17.30;99.90;;;;;;5097176;28;20860;-35
2021/07/27 03:33:34;;;;;;;6.87;6.27;;;17.30;99.90;;;;;;5096863;28;20506;-36
2021/07/27 03:36:00;;;;;;;7.93;6.73;;;17.30;99.90;;;;;;5099962;28;20590;-35
2021/07/27 03:38:26;;;;;;;7.27;6.57;;;17.30;99.90;;;;;;5100675;28;20172;-35
2021/07/27 03:40:51;;;;;;;10.93;6.70;;;17.20;99.90;;;;;;5100065;28;20432;-35
2021/07/27 03:43:17;;;;;;;7.20;6.60;;;17.20;99.90;;;;;;5081981;28;20227;-37
2021/07/27 03:45:43;;;;;;;7.70;7.00;;;17.20;99.90;;;;;;5082240;28;20252;-35
2021/07/27 03:48:09;;;;;;;7.40;6.70;;;17.10;99.90;;;;;;5100037;28;20180;-35
2021/07/27 03:50:34;;;;;;;6.60;6.00;;;17.10;99.90;;;;;;5100302;28;20249;-35
2021/07/27 03:53:00;;;;;;;7.30;6.20;;;17.10;99.90;;;;;;5100549;28;20410;-35
2021/07/27 03:55:26;;;;;;;9.33;6.73;;;17.10;99.90;;;;;;5100202;28;20184;-34
2021/07/27 03:57:52;;;;;;;6.60;6.00;;;17.00;99.90;;;;;;5098727;28;20313;-35
2021/07/27 04:00:18;;;;;;;6.50;5.90;;;17.00;99.90;;;;;;5098620;28;20187;-37
2021/07/27 04:02:44;;;;;;;8.43;6.80;;;17.00;99.90;;;;;;5098708;28;20462;-36
2021/07/27 04:05:10;;;;;;;12.30;6.87;;;17.00;99.90;;;;;;5099298;28;20521;-36
2021/07/27 04:07:36;;;;;;;6.97;6.33;;;17.00;99.90;;;;;;5098403;28;20567;-36
2021/07/27 04:10:01;;;;;;;7.80;6.60;;;17.10;99.90;;;;;;5099906;28;20415;-36
2021/07/27 04:12:27;;;;;;;6.73;6.03;;;17.10;99.90;;;;;;5099422;28;20637;-36
2021/07/27 04:14:53;;;;;;;7.00;6.30;;;17.10;99.90;;;;;;5098729;28;20620;-36
2021/07/27 04:17:20;;;;;;;6.50;5.90;;;17.20;99.90;;;;;;5099230;28;20236;-35
2021/07/27 04:19:48;;;;;;;6.30;5.60;;;17.20;99.90;;;;;;5063673;28;20418;-36
2021/07/27 04:22:14;;;;;;;6.60;5.90;;;17.20;99.90;;;;;;5099638;28;20543;-36
2021/07/27 04:24:41;;;;;;;7.23;6.53;;;17.20;99.90;;;;;;5099675;28;20414;-36
2021/07/27 04:27:06;;;;;;;6.63;6.03;;;17.30;99.90;;;;;;5100000;28;20526;-36
2021/07/27 04:29:33;;;;;;;7.03;6.43;;;17.30;99.90;;;;;;5099701;28;20517;-36
2021/07/27 04:31:59;;;;;;;7.20;6.60;;;17.30;99.90;;;;;;5099767;28;20184;-36
2021/07/27 04:34:25;;;;;;;11.23;6.67;;;17.30;99.90;;;;;;5104720;28;20438;-37
2021/07/27 04:36:54;;;;;;;6.80;5.93;;;17.30;99.90;;;;;;5102245;28;20188;-36
2021/07/27 04:39:19;;;;;;;7.43;6.70;;;17.30;99.90;;;;;;5099445;28;20492;-36
2021/07/27 04:41:45;;;;;;;7.30;6.53;;;17.30;99.90;;;;;;5080655;28;20633;-36
2021/07/27 04:44:11;;;;;;;6.20;5.60;;;17.40;99.90;;;;;;5081198;28;20425;-37
2021/07/27 04:46:37;;;;;;;6.77;6.17;;;17.40;99.90;;;;;;5098686;28;20471;-36
2021/07/27 04:49:03;;;;;;;8.10;7.30;;;17.40;99.90;;;;;;5098319;28;20513;-35
2021/07/27 04:51:29;;;;;;;7.80;6.50;;;17.50;99.90;;;;;;5098580;28;20180;-35
2021/07/27 04:54:01;;;;;;;7.20;6.50;;;17.60;99.90;;;;;;5096875;28;20438;-36
2021/07/27 04:56:33;;;;;;;6.17;5.57;;;17.60;99.90;;;;;;5065908;28;20466;-36
2021/07/27 04:58:59;;;;;;;14.70;5.70;;;17.70;99.90;;;;;;5064408;28;20439;-35
2021/07/27 05:01:25;;;;;;;6.73;5.97;;;17.80;99.90;;;;;;5089828;28;20515;-36
2021/07/27 05:03:51;;;;;;;7.37;6.37;;;17.90;99.90;;;;;;5098955;28;20422;-36
2021/07/27 05:06:23;;;;;;;8.30;5.90;;;17.90;99.90;;;;;;5097982;28;20417;-36
2021/07/27 05:08:49;;;;;;;7.50;6.77;;;17.90;99.90;;;;;;5079999;28;20580;-35
2021/07/27 05:11:15;;;;;;;7.90;6.20;;;17.90;99.90;;;;;;5080521;28;20421;-35
2021/07/27 05:13:40;;;;;;;6.97;6.23;;;18.00;99.90;;;;;;5098511;28;20426;-36
2021/07/27 05:16:06;;;;;;;10.43;6.83;;;18.10;99.90;;;;;;5098034;28;20236;-36
2021/07/27 05:18:32;;;;;;;7.40;6.70;;;18.10;99.90;;;;;;5098217;28;20255;-36
2021/07/27 05:20:58;;;;;;;9.63;7.17;;;18.10;99.90;;;;;;5097136;28;20407;-36
2021/07/27 05:23:24;;;;;;;7.80;7.00;;;18.10;99.90;;;;;;5095981;28;20485;-36
2021/07/27 05:25:50;;;;;;;9.77;6.60;;;18.10;99.90;;;;;;5096085;28;20199;-36
2021/07/27 05:28:16;;;;;;;8.00;6.67;;;18.10;99.90;;;;;;5075406;28;20809;-36
2021/07/27 05:30:41;;;;;;;9.70;6.90;;;18.20;99.90;;;;;;5076250;28;20180;-35
2021/07/27 05:33:08;;;;;;;7.80;7.00;;;18.20;99.90;;;;;;5075261;28;20196;-36
2021/07/27 05:35:34;;;;;;;8.03;7.33;;;18.20;99.90;;;;;;5075879;28;20572;-36
2021/07/27 05:38:00;;;;;;;7.67;6.97;;;18.10;99.90;;;;;;5075604;28;20422;-36
2021/07/27 05:40:30;;;;;;;7.90;7.10;;;18.00;99.90;;;;;;5076051;28;20523;-36
2021/07/27 05:42:57;;;;;;;9.80;7.97;;;18.00;99.90;;;;;;5076173;28;20489;-36
2021/07/27 05:45:24;;;;;;;7.83;7.07;;;18.00;99.90;;;;;;5076253;28;20435;-36
2021/07/27 05:47:51;;;;;;;7.47;6.77;;;18.00;99.90;;;;;;5074886;28;20419;-36
2021/07/27 05:50:18;;;;;;;9.40;7.47;;;18.20;99.90;;;;;;5058477;28;20743;-36
2021/07/27 05:52:44;;;;;;;7.30;6.60;;;18.30;99.90;;;;;;5076245;28;20419;-38
2021/07/27 05:55:11;;;;;;;8.00;7.27;;;18.50;99.90;;;;;;5076433;28;20430;-36
2021/07/27 05:57:37;;;;;;;8.37;7.47;;;18.70;99.90;;;;;;5074474;28;20453;-36
2021/07/27 06:00:04;;;;;;;6.63;6.03;;;18.80;99.90;;;;;;5091598;28;20465;-36
2021/07/27 06:02:30;;;;;;;10.73;7.20;;;19.00;99.90;;;;;;5096265;28;20479;-35
2021/07/27 06:04:56;;;;;;;9.00;6.87;;;19.30;99.90;;;;;;5097362;28;20457;-37
2021/07/27 06:07:22;;;;;;;7.43;6.77;;;19.60;99.90;;;;;;5078649;28;20184;-36
2021/07/27 06:09:48;;;;;;;8.13;5.67;;;19.80;99.90;;;;;;5095749;28;20495;-36
2021/07/27 06:12:16;;;;;;;7.00;6.30;;;20.10;99.90;;;;;;5093214;28;20180;-36
2021/07/27 06:14:42;;;;;;;7.23;6.63;;;20.40;99.60;;;;;;5094256;28;20848;-37
2021/07/27 06:17:15;;;;;;;8.93;8.03;;;20.70;99.50;;;;;;5073615;28;20487;-37
2021/07/27 06:19:41;;;;;;;19.90;7.47;;;20.90;98.40;;;;;;5073512;28;20420;-35
2021/07/27 06:22:06;;;;;;;7.70;7.00;;;21.10;98.40;;;;;;5076685;28;20482;-36
2021/07/27 06:24:32;;;;;;;10.10;7.40;;;21.30;97.60;;;;;;5075598;28;20192;-37
2021/07/27 06:26:58;;;;;;;7.40;6.67;;;21.30;97.30;;;;;;5076052;28;20430;-37
2021/07/27 06:29:24;;;;;;;7.90;6.27;;;21.30;97.30;;;;;;5075601;28;20211;-36
2021/07/27 06:31:50;;;;;;;9.50;6.63;;;21.20;97.70;;;;;;5068990;28;20494;-37
2021/07/27 06:34:15;;;;;;;8.27;6.63;;;21.20;97.40;;;;;;5054044;28;20438;-36
2021/07/27 06:36:41;;;;;;;7.53;6.33;;;21.30;97.50;;;;;;5053317;28;20257;-37
2021/07/27 06:39:07;;;;;;;6.83;6.33;;;21.30;96.90;;;;;;5052240;28;20189;-37
2021/07/27 06:41:32;;;;;;;7.27;6.47;;;21.20;97.30;;;;;;5052083;28;20598;-36
2021/07/27 06:43:58;;;;;;;8.20;7.40;;;21.10;97.20;;;;;;5072904;28;20197;-36
2021/07/27 06:46:24;;;;;;;6.63;6.13;;;21.20;97.30;;;;;;5075250;28;20175;-36
2021/07/27 06:48:50;;;;;;;8.10;7.30;;;21.30;97.30;;;;;;5074575;28;20464;-35
2021/07/27 06:51:17;;;;;;;6.90;6.30;;;21.30;97.20;;;;;;5065200;28;20559;-36
2021/07/27 06:53:44;;;;;;;7.80;6.40;;;21.20;97.50;;;;;;5053912;28;20555;-36
2021/07/27 06:56:11;;;;;;;7.47;6.70;;;21.30;97.60;;;;;;5054736;28;20408;-37
2021/07/27 06:58:41;;;;;;;8.10;6.07;;;21.50;97.60;;;;;;5054589;28;20444;-36
2021/07/27 07:01:09;;;;;;;9.27;7.67;;;21.80;97.30;;;;;;5055268;28;20476;-36
2021/07/27 07:03:39;;;;;;;7.37;6.67;;;22.00;96.60;;;;;;5053814;28;20458;-38
2021/07/27 07:06:05;;;;;;;8.60;6.30;;;22.40;96.30;;;;;;5054685;28;20502;-36
2021/07/27 07:08:30;;;;;;;7.40;6.70;;;22.70;95.60;;;;;;5055609;28;20436;-35
2021/07/27 07:11:03;;;;;;;7.30;5.90;;;22.90;95.30;;;;;;5057785;28;20177;-35
2021/07/27 07:13:31;;;;;;;7.80;7.10;;;23.00;95.00;;;;;;5059494;28;20273;-36
2021/07/27 07:15:56;;;;;;;7.20;6.50;;;23.30;95.00;;;;;;5061484;28;20687;-36
2021/07/27 07:18:23;;;;;;;6.97;6.27;;;23.30;94.00;;;;;;5078623;28;20445;-36
2021/07/27 07:20:51;;;;;;;7.30;6.70;;;23.60;93.70;;;;;;5085232;28;20198;-35
2021/07/27 07:23:17;;;;;;;7.53;6.87;;;23.70;92.80;;;;;;5079083;28;20466;-35
2021/07/27 07:25:43;;;;;;;6.17;5.67;;;23.70;93.20;;;;;;5078573;28;20541;-35
2021/07/27 07:28:13;;;;;;;7.10;6.43;;;24.00;93.40;;;;;;5077842;28;20477;-36
2021/07/27 07:30:39;;;;;;;7.23;6.53;;;24.10;92.00;;;;;;5076885;28;20435;-36
2021/07/27 07:33:05;;;;;;;7.60;6.80;;;24.10;91.60;;;;;;5077766;28;20798;-36
2021/07/27 07:35:30;;;;;;;7.23;6.53;;;23.90;92.40;;;;;;5078296;28;20431;-37
2021/07/27 07:37:56;;;;;;;8.00;6.23;;;24.00;91.90;;;;;;5079739;28;20423;-36
2021/07/27 07:40:22;;;;;;;6.63;6.03;;;24.20;91.80;;;;;;5091512;28;20216;-36
2021/07/27 07:42:48;;;;;;;7.80;6.80;;;24.20;91.10;;;;;;5100240;28;20780;-37
2021/07/27 07:45:14;;;;;;;8.33;6.30;;;24.40;91.00;;;;;;5082561;28;20442;-36
2021/07/27 07:47:43;;;;;;;7.73;6.80;;;24.50;90.20;;;;;;5100171;28;20164;-36
2021/07/27 07:50:10;;;;;;;8.30;6.67;;;24.50;90.50;;;;;;5079939;28;20180;-35
2021/07/27 07:52:36;;;;;;;8.07;6.37;;;24.80;91.00;;;;;;5061949;28;20426;-37
2021/07/27 07:55:04;;;;;;;7.37;6.67;;;24.70;90.80;;;;;;5079387;28;20427;-37
2021/07/27 07:57:34;;;;;;;7.13;6.60;;;24.70;90.60;;;;;;5077634;28;20349;-36
2021/07/27 08:00:01;;;;;;;9.00;7.00;;;24.70;91.20;;;;;;5077957;28;20454;-36
2021/07/27 08:02:30;;;;;;;7.10;6.50;;;24.30;91.20;;;;;;5060371;28;20455;-36
2021/07/27 08:04:56;;;;;;;6.97;6.27;;;24.60;91.30;;;;;;5082176;28;20493;-36
2021/07/27 08:07:22;;;;;;;5.60;5.10;;;24.70;90.70;;;;;;5080775;28;20411;-37
2021/07/27 08:09:48;;;;;;;7.57;6.70;;;24.90;90.60;;;;;;5077027;28;20227;-36
2021/07/27 08:12:14;;;;;;;7.70;6.97;;;24.90;90.30;;;;;;5076507;28;20416;-36
2021/07/27 08:14:40;;;;;;;7.33;6.47;;;24.90;90.00;;;;;;5076025;28;20575;-36
2021/07/27 08:17:05;;;;;;;7.40;6.70;;;24.90;90.50;;;;;;5076936;28;20593;-36
2021/07/27 08:19:31;;;;;;;7.90;7.20;;;24.90;89.90;;;;;;5096248;28;20185;-35
2021/07/27 08:21:57;;;;;;;8.00;7.40;;;24.80;90.70;;;;;;5097557;28;20207;-36
2021/07/27 08:24:27;;;;;;;8.00;7.20;;;24.90;89.80;;;;;;5096942;28;20565;-36
2021/07/27 08:26:52;;;;;;;7.40;6.70;;;24.80;90.10;;;;;;5096661;28;20433;-36
2021/07/27 08:29:18;;;;;;;6.90;6.30;;;24.90;89.70;;;;;;5097543;28;20403;-36
2021/07/27 08:31:45;;;;;;;7.53;6.80;;;24.90;90.10;;;;;;5096663;28;20564;-34
2021/07/27 08:34:17;;;;;;;7.00;6.40;;;25.00;88.80;;;;;;5096613;28;20448;-36
2021/07/27 08:36:44;;;;;;;7.70;7.10;;;25.10;87.50;;;;;;5076367;28;20917;-36
2021/07/27 08:39:10;;;;;;;7.90;6.47;;;25.00;88.60;;;;;;5076146;28;20483;-37
2021/07/27 08:41:38;;;;;;;8.00;7.20;;;25.00;89.20;;;;;;5076945;28;20874;-36
2021/07/27 08:44:24;;;;;;;8.00;7.30;;;25.20;87.80;;;;;;5078091;28;20541;-37
2021/07/27 08:46:50;;;;;;;7.40;6.70;;;25.40;88.90;;;;;;5059570;28;20427;-36
2021/07/27 08:49:16;;;;;;;8.20;7.50;;;25.60;87.30;;;;;;5041641;28;20420;-36
2021/07/27 08:51:45;;;;;;;7.33;6.70;;;25.90;87.00;;;;;;5057025;28;20176;-37
2021/07/27 08:54:12;;;;;;;7.40;6.70;;;26.30;85.70;;;;;;5056931;28;20483;-35
2021/07/27 08:56:45;;;;;;;6.93;6.23;;;26.60;84.40;;;;;;5076779;28;20899;-36
2021/07/27 08:59:12;;;;;;;8.10;7.40;;;27.00;83.70;;;;;;5076198;28;20697;-36
2021/07/27 09:01:37;;;;;;;7.90;7.00;;;27.20;82.10;;;;;;5076074;28;20466;-36
2021/07/27 09:04:03;;;;;;;7.90;7.20;;;27.30;80.20;;;;;;5075724;28;20677;-36
2021/07/27 09:06:29;;;;;;;8.50;7.63;;;27.30;81.00;;;;;;5095321;28;20187;-36
2021/07/27 09:09:11;;;;;;;7.47;6.77;;;27.60;81.50;;;;;;5097080;28;20161;-36
2021/07/27 09:11:44;;;;;;;7.70;7.03;;;27.90;79.10;;;;;;5094780;28;20184;-37
2021/07/27 09:14:19;;;;;;;6.90;6.40;;;28.30;81.10;;;;;;5097479;28;20511;-36
2021/07/27 09:16:46;;;;;;;6.57;6.07;;;28.50;75.30;;;;;;5035667;28;1188830;-37
2021/07/27 09:19:13;;;;;;;7.57;6.90;;;28.60;74.40;;;;;;5078324;28;20588;-39
2021/07/27 09:21:42;;;;;;;7.40;6.80;;;29.00;74.30;;;;;;5059644;28;20581;-38
2021/07/27 09:24:11;;;;;;;6.20;5.70;;;29.20;73.00;;;;;;5059382;28;20446;-36
2021/07/27 09:26:37;;;;;;;5.63;5.13;;;29.40;71.00;;;;;;5075636;28;20960;-36
2021/07/27 09:29:04;;;;;;;6.37;5.77;;;28.60;70.40;;;;;;5075250;28;20423;-36
2021/07/27 09:31:31;;;;;;;6.77;6.17;;;27.20;72.00;;;;;;5072311;28;20873;-37
2021/07/27 09:33:57;;;;;;;6.43;5.87;;;27.40;73.70;;;;;;5073899;28;20754;-36
2021/07/27 09:36:26;;;;;;;6.70;6.10;;;27.80;74.10;;;;;;5095988;28;20406;-36
2021/07/27 09:39:04;;;;;;;6.00;5.50;;;28.50;75.00;;;;;;5097410;28;20175;-37
2021/07/27 09:41:31;;;;;;;6.40;5.90;;;29.30;75.20;;;;;;5097386;28;20862;-37
2021/07/27 09:43:58;;;;;;;6.30;5.80;;;29.80;65.30;;;;;;5084240;28;20424;-37
2021/07/27 09:46:25;;;;;;;6.30;5.80;;;30.00;65.40;;;;;;5078335;28;20417;-37
2021/07/27 09:48:54;;;;;;;6.50;5.90;;;29.70;64.60;;;;;;5086038;28;20520;-37
2021/07/27 09:51:20;;;;;;;6.50;6.00;;;29.60;63.60;;;;;;5074214;28;20423;-38
2021/07/27 09:53:47;;;;;;;6.70;5.93;;;30.00;61.70;;;;;;5082277;28;20426;-37
2021/07/27 09:56:13;;;;;;;6.07;5.57;;;29.80;60.20;;;;;;5078878;28;20405;-36
2021/07/27 09:58:40;;;;;;;6.20;5.70;;;29.70;62.40;;;;;;5078463;28;20388;-37
2021/07/27 10:01:20;;;;;;;6.30;5.77;;;29.70;61.00;;;;;;5095915;28;20684;-37
2021/07/27 10:03:51;;;;;;;5.50;5.10;;;30.30;63.50;;;;;;5057008;28;20447;-37
2021/07/27 10:06:25;;;;;;;7.00;5.67;;;30.90;59.90;;;;;;5075981;28;20394;-37
2021/07/27 10:08:58;;;;;;;6.77;6.17;;;30.80;57.40;;;;;;5058237;28;20476;-37
2021/07/27 10:11:44;;;;;;;5.97;5.47;;;30.80;56.70;;;;;;5075391;28;20604;-36
2021/07/27 10:14:11;;;;;;;6.53;6.03;;;30.10;56.60;;;;;;5094330;28;20427;-38
2021/07/27 10:16:37;;;;;;;5.77;5.37;;;30.00;57.70;;;;;;5095713;28;20466;-36
2021/07/27 10:19:20;;;;;;;5.93;5.43;;;29.00;57.70;;;;;;5097227;28;20445;-36
2021/07/27 10:21:48;;;;;;;6.20;5.70;;;29.40;58.10;;;;;;5078048;28;20454;-37
2021/07/27 10:24:25;;;;;;;6.67;6.00;;;29.80;57.20;;;;;;5075774;28;20553;-36
2021/07/27 10:26:51;;;;;;;5.90;5.40;;;30.10;56.20;;;;;;5075814;28;20421;-39
2021/07/27 10:29:29;;;;;;;7.37;6.67;;;30.60;55.90;;;;;;5076253;28;20535;-37
2021/07/27 10:31:54;;;;;;;6.40;5.80;;;30.30;55.80;;;;;;5094533;28;20423;-37
2021/07/27 10:34:32;;;;;;;5.80;5.30;;;30.30;55.90;;;;;;5095208;28;20905;-38
2021/07/27 10:37:06;;;;;;;6.03;5.50;;;30.60;55.80;;;;;;5094227;28;20214;-39
2021/07/27 10:39:31;;;;;;;6.10;5.60;;;31.10;54.90;;;;;;5094677;28;20453;-38
2021/07/27 10:42:07;;;;;;;5.20;4.80;;;30.90;54.10;;;;;;5073352;28;20470;-37
2021/07/27 10:44:38;;;;;;;4.93;4.53;;;31.00;52.90;;;;;;5075845;28;20171;-37
2021/07/27 10:47:05;;;;;;;5.93;5.33;;;31.10;54.40;;;;;;5095843;28;20787;-37
2021/07/27 10:49:31;;;;;;;6.13;5.63;;;31.50;53.90;;;;;;5095807;28;20418;-38
2021/07/27 10:52:02;;;;;;;6.23;5.63;;;31.50;53.80;;;;;;5064786;28;20429;-39
2021/07/27 10:54:37;;;;;;;6.37;5.83;;;31.00;52.30;;;;;;5058789;28;20501;-38
2021/07/27 10:57:07;;;;;;;5.93;5.43;;;30.50;53.40;;;;;;5076302;28;20498;-38
2021/07/27 10:59:36;;;;;;;6.30;5.80;;;30.60;54.40;;;;;;5062191;28;20438;-38
2021/07/27 11:02:10;;;;;;;6.07;5.47;;;30.40;53.90;;;;;;5062003;28;20485;-37
2021/07/27 11:04:35;;;;;;;5.90;5.40;;;30.30;54.30;;;;;;5095224;28;20511;-38
2021/07/27 11:07:12;;;;;;;5.53;5.07;;;30.30;53.30;;;;;;5096064;28;20853;-38
2021/07/27 11:09:55;;;;;;;5.57;5.17;;;30.60;53.50;;;;;;5094530;28;20180;-37
2021/07/27 11:12:34;;;;;;;5.37;4.97;;;31.20;53.20;;;;;;5075872;28;20888;-39
2021/07/27 11:15:07;;;;;;;5.30;4.90;;;31.80;52.90;;;;;;5074596;28;20393;-38
2021/07/27 11:17:33;;;;;;;6.00;5.50;;;32.30;51.40;;;;;;5074261;28;20519;-38
2021/07/27 11:19:59;;;;;;;5.33;4.90;;;32.60;51.80;;;;;;5074257;28;20478;-38
2021/07/27 11:22:26;;;;;;;5.50;5.00;;;32.90;48.30;;;;;;5075314;28;20512;-38
2021/07/27 11:24:54;;;;;;;4.80;4.40;;;33.00;48.50;;;;;;5074291;28;20401;-39
2021/07/27 11:27:23;;;;;;;5.27;4.87;;;33.30;46.50;;;;;;5055871;28;20413;-39
2021/07/27 11:29:56;;;;;;;5.27;4.77;;;33.50;46.30;;;;;;5056906;28;20413;-42
2021/07/27 11:32:25;;;;;;;5.33;4.93;;;33.50;46.20;;;;;;5075332;28;20450;-40
2021/07/27 11:34:56;;;;;;;5.10;4.60;;;32.80;46.80;;;;;;5058421;28;20423;-37
2021/07/27 11:37:26;;;;;;;4.80;4.40;;;31.50;47.50;;;;;;5074241;28;20427;-38
2021/07/27 11:39:52;;;;;;;5.10;4.70;;;31.50;47.60;;;;;;5072412;28;20530;-38
2021/07/27 11:42:29;;;;;;;5.20;4.80;;;30.90;47.90;;;;;;5075160;28;20592;-39
2021/07/27 11:44:56;;;;;;;5.37;4.87;;;30.20;48.70;;;;;;5074467;28;20393;-38
2021/07/27 11:47:23;;;;;;;4.80;4.40;;;29.70;49.40;;;;;;5075274;28;20717;-37
2021/07/27 11:49:56;;;;;;;4.97;4.47;;;29.20;49.80;;;;;;5076668;28;20826;-39
2021/07/27 11:52:27;;;;;;;5.20;4.80;;;28.80;51.00;;;;;;5075611;28;20433;-38
2021/07/27 11:55:03;;;;;;;5.70;5.03;;;28.80;52.00;;;;;;5075911;28;20423;-38
2021/07/27 11:57:29;;;;;;;4.50;4.10;;;28.90;51.60;;;;;;5083505;28;20439;-39
2021/07/27 12:00:09;;;;;;;6.00;5.23;;;28.90;51.70;;;;;;5078694;28;20430;-38
2021/07/27 12:02:35;;;;;;;4.83;4.43;;;29.00;51.40;;;;;;5077997;28;20575;-35
2021/07/27 12:05:01;;;;;;;5.10;4.70;;;28.60;52.00;;;;;;5077702;28;20488;-39
2021/07/27 12:07:29;;;;;;;5.30;4.80;;;28.40;52.20;;;;;;5079949;28;20728;-38
2021/07/27 12:09:54;;;;;;;6.10;4.53;;;28.30;53.10;;;;;;5079257;28;20237;-38
2021/07/27 12:12:21;;;;;;;5.00;4.60;;;28.40;53.30;;;;;;5078825;28;20492;-39
2021/07/27 12:14:46;;;;;;;4.80;4.40;;;28.50;52.60;;;;;;5077993;28;20189;-40
2021/07/27 12:17:12;;;;;;;5.57;5.07;;;28.60;52.80;;;;;;5088623;28;20731;-39
2021/07/27 12:19:38;;;;;;;5.57;5.07;;;28.80;53.40;;;;;;5095789;28;20192;-36
2021/07/27 12:22:03;;;;;;;5.07;4.67;;;29.00;53.30;;;;;;5098597;28;20196;-37
2021/07/27 12:24:29;;;;;;;5.00;4.60;;;29.20;52.60;;;;;;5098043;28;20200;-38
2021/07/27 12:26:55;;;;;;;5.23;4.83;;;29.30;53.50;;;;;;5077397;28;20181;-38
2021/07/27 12:29:21;;;;;;;5.20;4.80;;;29.40;52.80;;;;;;5086971;28;20242;-38
2021/07/27 12:31:46;;;;;;;5.70;5.10;;;29.20;53.10;;;;;;5097765;28;20268;-36
2021/07/27 12:34:13;;;;;;;6.63;4.97;;;29.50;52.60;;;;;;5080736;28;20889;-39
2021/07/27 12:36:39;;;;;;;5.50;4.60;;;29.60;52.80;;;;;;5095720;28;20172;-38
2021/07/27 12:39:05;;;;;;;5.20;4.70;;;29.90;52.80;;;;;;5098614;28;20671;-39
2021/07/27 12:41:31;;;;;;;5.37;4.87;;;30.20;51.60;;;;;;5097213;28;20430;-39
2021/07/27 12:43:56;;;;;;;5.03;4.57;;;30.30;52.20;;;;;;5095510;28;20784;-38
2021/07/27 12:46:25;;;;;;;5.40;4.93;;;30.80;52.10;;;;;;5075454;28;20173;-38
2021/07/27 12:48:52;;;;;;;5.70;5.20;;;31.30;50.80;;;;;;5076046;28;20456;-40
2021/07/27 12:51:20;;;;;;;4.93;4.37;;;31.80;49.00;;;;;;5077136;28;20817;-40
2021/07/27 12:53:50;;;;;;;5.20;4.70;;;32.20;50.80;;;;;;5076266;28;20518;-40
2021/07/27 12:56:16;;;;;;;5.60;4.90;;;32.60;48.60;;;;;;5092498;28;20415;-38
2021/07/27 12:58:42;;;;;;;6.00;5.40;;;32.80;48.40;;;;;;5097088;28;20521;-38
2021/07/27 13:01:10;;;;;;;6.20;4.93;;;32.80;48.30;;;;;;5096297;28;20488;-38
2021/07/27 13:03:35;;;;;;;6.20;5.70;;;32.60;48.50;;;;;;5071800;28;20471;-39